createdAt,value
2018-08-28T00:00:42.377Z,9.70
2018-08-28T00:01:45.837Z,6.90
2018-08-28T00:02:49.267Z,9.43
2018-08-28T00:03:53.304Z,8.73
2018-08-28T00:04:56.706Z,11.37
2018-08-28T00:06:00.105Z,8.13
2018-08-28T00:07:03.548Z,9.77
2018-08-28T00:08:06.973Z,8.37
2018-08-28T00:09:10.369Z,5.23
2018-08-28T00:10:13.825Z,5.17
2018-08-28T00:11:17.303Z,6.27
2018-08-28T00:12:20.769Z,7.17
2018-08-28T00:13:24.223Z,5.87
2018-08-28T00:14:27.611Z,9.90
2018-08-28T00:15:31.024Z,7.30
2018-08-28T00:16:34.440Z,6.40
2018-08-28T00:17:37.881Z,9.13
2018-08-28T00:18:41.545Z,12.27
2018-08-28T00:19:44.944Z,6.37
2018-08-28T00:20:48.317Z,7.73
2018-08-28T00:21:51.731Z,4.77
2018-08-28T00:22:55.136Z,7.77
2018-08-28T00:23:58.541Z,14.17
2018-08-28T00:25:01.993Z,7.67
2018-08-28T00:26:05.385Z,7.27
2018-08-28T00:27:09.013Z,8.03
2018-08-28T00:28:12.428Z,5.80
2018-08-28T00:29:15.863Z,8.80
2018-08-28T00:30:19.272Z,9.40
2018-08-28T00:31:22.704Z,7.80
2018-08-28T00:32:26.202Z,8.93
2018-08-28T00:33:29.605Z,5.30
2018-08-28T00:34:33.364Z,8.70
2018-08-28T00:35:36.785Z,6.00
2018-08-28T00:36:40.171Z,5.87
2018-08-28T00:37:43.537Z,7.37
2018-08-28T00:38:46.937Z,9.27
2018-08-28T00:39:50.329Z,6.87
2018-08-28T00:40:53.711Z,6.33
2018-08-28T00:41:57.162Z,10.03
2018-08-28T00:43:00.675Z,10.10
2018-08-28T00:44:04.113Z,6.97
2018-08-28T00:45:07.757Z,5.53
2018-08-28T00:46:11.153Z,5.10
2018-08-28T00:47:14.557Z,6.33
2018-08-28T00:48:17.950Z,7.00
2018-08-28T00:49:21.366Z,6.47
2018-08-28T00:50:24.775Z,9.43
2018-08-28T00:51:28.203Z,9.53
2018-08-28T00:52:31.658Z,4.97
2018-08-28T00:53:35.041Z,12.17
2018-08-28T00:54:38.452Z,6.80
2018-08-28T00:55:41.896Z,7.60
2018-08-28T00:56:45.350Z,9.67
2018-08-28T00:57:48.779Z,6.57
2018-08-28T00:58:52.201Z,7.70
2018-08-28T00:59:55.572Z,5.43
2018-08-28T01:00:58.933Z,7.60
2018-08-28T01:02:02.326Z,4.80
2018-08-28T01:03:05.929Z,12.57
2018-08-28T01:04:09.317Z,6.30
2018-08-28T01:05:12.681Z,8.17
2018-08-28T01:06:16.045Z,5.33
2018-08-28T01:07:19.438Z,8.67
2018-08-28T01:08:22.800Z,9.87
2018-08-28T01:09:26.206Z,7.23
2018-08-28T01:10:29.568Z,5.30
2018-08-28T01:11:32.964Z,9.40
2018-08-28T01:12:36.382Z,4.67
2018-08-28T01:13:39.829Z,9.47
2018-08-28T01:14:43.309Z,7.90
2018-08-28T01:15:46.732Z,7.40
2018-08-28T01:16:50.138Z,7.77
2018-08-28T01:17:54.238Z,6.60
2018-08-28T01:18:57.642Z,12.40
2018-08-28T01:20:01.021Z,11.63
2018-08-28T01:21:04.397Z,5.70
2018-08-28T01:22:07.805Z,8.73
2018-08-28T01:23:11.199Z,7.10
2018-08-28T01:24:14.620Z,6.93
2018-08-28T01:25:17.999Z,5.57
2018-08-28T01:26:21.452Z,8.63
2018-08-28T01:27:24.850Z,4.90
2018-08-28T01:28:28.375Z,4.73
2018-08-28T01:29:31.750Z,4.43
2018-08-28T01:30:36.069Z,4.80
2018-08-28T01:31:39.512Z,5.80
2018-08-28T01:32:42.893Z,7.83
2018-08-28T01:33:46.253Z,4.80
2018-08-28T01:34:49.674Z,8.10
2018-08-28T01:35:53.042Z,9.63
2018-08-28T01:36:56.494Z,7.83
2018-08-28T01:37:59.985Z,5.57
2018-08-28T01:39:03.562Z,4.60
2018-08-28T01:40:07.001Z,6.97
2018-08-28T01:41:10.489Z,6.43
2018-08-28T01:42:18.377Z,5.73
2018-08-28T01:43:24.608Z,7.33
2018-08-28T01:44:28.064Z,3.30
2018-08-28T01:45:31.480Z,7.70
2018-08-28T01:46:34.977Z,6.63
2018-08-28T01:47:38.402Z,4.87
2018-08-28T01:48:41.815Z,8.13
2018-08-28T01:49:45.368Z,4.33
2018-08-28T01:50:48.818Z,6.33
2018-08-28T01:51:52.215Z,4.80
2018-08-28T01:52:55.606Z,7.43
2018-08-28T01:53:59.008Z,6.03
2018-08-28T01:55:02.397Z,9.53
2018-08-28T01:56:05.851Z,12.03
2018-08-28T01:57:09.261Z,10.40
2018-08-28T01:58:12.687Z,7.57
2018-08-28T01:59:16.092Z,7.47
2018-08-28T02:00:19.489Z,5.43
2018-08-28T02:01:23.030Z,6.17
2018-08-28T02:02:26.430Z,11.97
2018-08-28T02:03:29.832Z,9.03
2018-08-28T02:04:33.224Z,4.73
2018-08-28T02:05:36.622Z,6.20
2018-08-28T02:06:40.240Z,5.23
2018-08-28T02:07:43.599Z,8.37
2018-08-28T02:08:47.020Z,7.10
2018-08-28T02:09:50.388Z,5.70
2018-08-28T02:10:53.741Z,3.83
2018-08-28T02:11:57.166Z,7.37
2018-08-28T02:13:00.613Z,7.43
2018-08-28T02:14:04.078Z,3.93
2018-08-28T02:15:07.542Z,9.97
2018-08-28T02:16:10.967Z,9.53
2018-08-28T02:17:14.384Z,5.33
2018-08-28T02:18:17.787Z,4.50
2018-08-28T02:19:21.226Z,4.77
2018-08-28T02:20:24.676Z,5.00
2018-08-28T02:21:28.092Z,3.50
2018-08-28T02:22:31.578Z,9.00
2018-08-28T02:23:34.985Z,4.40
2018-08-28T02:24:38.632Z,10.10
2018-08-28T02:25:42.085Z,4.70
2018-08-28T02:26:45.557Z,10.73
2018-08-28T02:27:48.986Z,5.53
2018-08-28T02:28:52.369Z,3.70
2018-08-28T02:29:55.764Z,8.57
2018-08-28T02:30:59.168Z,5.57
2018-08-28T02:32:02.602Z,6.77
2018-08-28T02:33:06.241Z,8.47
2018-08-28T02:34:09.744Z,6.03
2018-08-28T02:35:13.138Z,7.70
2018-08-28T02:36:16.490Z,8.10
2018-08-28T02:37:19.894Z,3.70
2018-08-28T02:38:23.312Z,5.67
2018-08-28T02:39:26.746Z,6.90
2018-08-28T02:40:30.111Z,3.97
2018-08-28T02:41:33.517Z,8.50
2018-08-28T02:42:36.938Z,6.53
2018-08-28T02:43:40.435Z,5.70
2018-08-28T02:44:43.869Z,5.97
2018-08-28T02:45:47.250Z,7.00
2018-08-28T02:46:50.648Z,4.60
2018-08-28T02:47:54.076Z,6.27
2018-08-28T02:48:57.502Z,6.00
2018-08-28T02:50:00.892Z,4.30
2018-08-28T02:51:04.283Z,6.50
2018-08-28T02:52:07.662Z,3.90
2018-08-28T02:53:11.083Z,7.00
2018-08-28T02:54:14.474Z,6.80
2018-08-28T02:55:17.877Z,6.67
2018-08-28T02:56:21.305Z,6.93
2018-08-28T02:57:24.809Z,3.10
2018-08-28T02:58:28.263Z,5.30
2018-08-28T02:59:31.675Z,23.87
2018-08-28T03:00:35.046Z,6.20
2018-08-28T03:01:38.438Z,6.80
2018-08-28T03:02:41.854Z,5.00
2018-08-28T03:03:45.336Z,6.80
2018-08-28T03:04:48.699Z,5.33
2018-08-28T03:05:52.065Z,4.90
2018-08-28T03:06:55.479Z,4.63
2018-08-28T03:07:58.895Z,5.00
2018-08-28T03:09:02.292Z,4.47
2018-08-28T03:10:05.806Z,4.97
2018-08-28T03:11:09.212Z,5.07
2018-08-28T03:12:12.567Z,4.60
2018-08-28T03:13:15.948Z,5.53
2018-08-28T03:14:19.386Z,6.43
2018-08-28T03:15:22.847Z,3.90
2018-08-28T03:16:26.257Z,3.70
2018-08-28T03:17:29.628Z,7.10
2018-08-28T03:18:32.987Z,6.43
2018-08-28T03:19:36.416Z,6.67
2018-08-28T03:20:39.829Z,6.90
2018-08-28T03:21:43.282Z,4.07
2018-08-28T03:22:46.691Z,5.90
2018-08-28T03:23:50.073Z,4.43
2018-08-28T03:24:53.558Z,7.50
2018-08-28T03:25:56.982Z,2.93
2018-08-28T03:27:00.380Z,7.47
2018-08-28T03:28:03.799Z,5.57
2018-08-28T03:29:07.273Z,5.57
2018-08-28T03:30:10.630Z,4.57
2018-08-28T03:31:14.036Z,4.57
2018-08-28T03:32:17.409Z,3.27
2018-08-28T03:33:20.791Z,4.50
2018-08-28T03:34:24.167Z,6.33
2018-08-28T03:35:27.756Z,5.00
2018-08-28T03:36:31.385Z,5.60
2018-08-28T03:37:34.782Z,3.03
2018-08-28T03:38:38.184Z,4.00
2018-08-28T03:39:41.599Z,7.33
2018-08-28T03:40:44.984Z,3.03
2018-08-28T03:41:48.376Z,5.87
2018-08-28T03:42:51.762Z,6.33
2018-08-28T03:43:55.448Z,5.63
2018-08-28T03:44:58.831Z,4.50
2018-08-28T03:46:02.266Z,4.57
2018-08-28T03:47:05.938Z,2.93
2018-08-28T03:48:09.361Z,3.00
2018-08-28T03:49:12.780Z,4.43
2018-08-28T03:50:16.195Z,6.53
2018-08-28T03:51:19.605Z,4.10
2018-08-28T03:52:23.031Z,8.20
2018-08-28T03:53:26.459Z,5.13
2018-08-28T03:54:29.930Z,2.80
2018-08-28T03:55:33.394Z,11.23
2018-08-28T03:56:36.724Z,2.87
2018-08-28T03:57:40.118Z,4.97
2018-08-28T03:58:43.485Z,4.27
2018-08-28T03:59:47.053Z,19.07
2018-08-28T04:00:50.448Z,3.93
2018-08-28T04:01:53.850Z,6.47
2018-08-28T04:02:57.414Z,6.23
2018-08-28T04:04:03.785Z,3.63
2018-08-28T04:05:07.298Z,8.20
2018-08-28T04:06:10.804Z,10.57
2018-08-28T04:07:14.186Z,7.90
2018-08-28T04:08:17.586Z,5.27
2018-08-28T04:09:20.991Z,2.77
2018-08-28T04:10:24.601Z,4.33
2018-08-28T04:11:28.002Z,6.27
2018-08-28T04:12:31.391Z,5.23
2018-08-28T04:13:34.803Z,4.00
2018-08-28T04:14:38.206Z,3.93
2018-08-28T04:15:41.596Z,4.70
2018-08-28T04:16:44.998Z,7.17
2018-08-28T04:17:49.829Z,4.97
2018-08-28T04:18:53.239Z,3.80
2018-08-28T04:19:56.724Z,3.80
2018-08-28T04:21:00.196Z,5.47
2018-08-28T04:22:03.618Z,4.90
2018-08-28T04:23:07.319Z,3.53
2018-08-28T04:24:10.738Z,6.20
2018-08-28T04:25:14.299Z,5.17
2018-08-28T04:26:17.756Z,6.87
2018-08-28T04:27:21.169Z,3.40
2018-08-28T04:28:24.570Z,4.17
2018-08-28T04:29:28.023Z,5.20
2018-08-28T04:30:31.489Z,5.20
2018-08-28T04:31:34.820Z,3.27
2018-08-28T04:32:38.223Z,8.27
2018-08-28T04:33:41.598Z,7.43
2018-08-28T04:34:44.958Z,7.30
2018-08-28T04:35:48.328Z,4.03
2018-08-28T04:36:51.713Z,3.60
2018-08-28T04:37:55.180Z,4.77
2018-08-28T04:38:58.647Z,5.53
2018-08-28T04:40:02.094Z,12.50
2018-08-28T04:41:05.692Z,4.60
2018-08-28T04:42:09.060Z,4.50
2018-08-28T04:43:12.487Z,4.77
2018-08-28T04:44:15.956Z,5.30
2018-08-28T04:45:19.376Z,6.00
2018-08-28T04:46:22.784Z,8.00
2018-08-28T04:47:26.389Z,6.43
2018-08-28T04:48:29.865Z,5.80
2018-08-28T04:49:33.256Z,4.20
2018-08-28T04:50:36.699Z,3.23
2018-08-28T04:51:40.109Z,5.00
2018-08-28T04:52:43.512Z,4.10
2018-08-28T04:53:46.922Z,4.77
2018-08-28T04:54:50.361Z,4.00
2018-08-28T04:55:53.808Z,7.73
2018-08-28T04:56:57.161Z,5.97
2018-08-28T04:58:00.548Z,6.10
2018-08-28T04:59:04.014Z,3.70
2018-08-28T05:00:08.195Z,3.10
2018-08-28T05:01:11.617Z,3.70
2018-08-28T05:02:15.005Z,3.50
2018-08-28T05:03:18.423Z,6.13
2018-08-28T05:04:21.802Z,16.63
2018-08-28T05:05:25.202Z,30.27
2018-08-28T05:06:28.604Z,4.30
2018-08-28T05:07:32.254Z,6.20
2018-08-28T05:08:35.728Z,5.40
2018-08-28T05:09:39.124Z,2.33
2018-08-28T05:10:42.471Z,6.17
2018-08-28T05:11:45.886Z,5.40
2018-08-28T05:12:49.342Z,3.60
2018-08-28T05:13:52.806Z,4.93
2018-08-28T05:14:56.188Z,9.67
2018-08-28T05:15:59.659Z,5.83
2018-08-28T05:17:03.340Z,5.00
2018-08-28T05:18:06.738Z,2.40
2018-08-28T05:19:10.197Z,5.30
2018-08-28T05:20:13.602Z,4.33
2018-08-28T05:21:16.992Z,4.83
2018-08-28T05:22:20.365Z,2.70
2018-08-28T05:23:23.781Z,3.60
2018-08-28T05:24:27.218Z,6.00
2018-08-28T05:25:30.662Z,9.27
2018-08-28T05:26:34.150Z,4.80
2018-08-28T05:27:37.564Z,4.23
2018-08-28T05:28:40.973Z,6.00
2018-08-28T05:29:44.397Z,3.43
2018-08-28T05:30:47.845Z,7.97
2018-08-28T05:31:51.346Z,15.70
2018-08-28T05:32:54.772Z,4.17
2018-08-28T05:33:58.184Z,8.77
2018-08-28T05:35:01.617Z,5.00
2018-08-28T05:36:05.030Z,4.87
2018-08-28T05:37:08.455Z,11.73
2018-08-28T05:38:11.943Z,3.97
2018-08-28T05:39:15.301Z,7.00
2018-08-28T05:40:18.713Z,5.35
2018-08-28T05:41:22.104Z,10.80
2018-08-28T05:42:25.536Z,5.30
2018-08-28T05:43:28.931Z,6.63
2018-08-28T05:44:32.311Z,7.57
2018-08-28T05:45:35.736Z,35.73
2018-08-28T05:46:39.128Z,40.37
2018-08-28T05:47:42.538Z,52.70
2018-08-28T05:48:45.936Z,41.50
2018-08-28T05:49:49.310Z,35.87
2018-08-28T05:50:52.760Z,33.63
2018-08-28T05:51:56.172Z,24.37
2018-08-28T05:52:59.543Z,30.63
2018-08-28T05:54:02.975Z,17.83
2018-08-28T05:55:06.426Z,16.80
2018-08-28T05:56:10.388Z,14.17
2018-08-28T05:57:18.951Z,24.80
2018-08-28T05:58:22.352Z,17.63
2018-08-28T05:59:25.805Z,14.03
2018-08-28T06:00:29.224Z,16.27
2018-08-28T06:01:32.610Z,11.53
2018-08-28T06:02:35.989Z,19.47
2018-08-28T06:03:39.377Z,12.10
2018-08-28T06:04:42.786Z,12.43
2018-08-28T06:05:46.212Z,9.77
2018-08-28T06:06:49.627Z,14.27
2018-08-28T06:07:53.121Z,20.57
2018-08-28T06:08:56.645Z,14.53
2018-08-28T06:10:00.039Z,15.07
2018-08-28T06:11:03.569Z,15.07
2018-08-28T06:12:07.026Z,13.13
2018-08-28T06:13:10.621Z,13.00
2018-08-28T06:14:14.065Z,15.07
2018-08-28T06:15:17.460Z,14.30
2018-08-28T06:16:20.899Z,11.03
2018-08-28T06:17:24.353Z,16.97
2018-08-28T06:18:27.848Z,13.60
2018-08-28T06:19:31.258Z,13.07
2018-08-28T06:20:34.635Z,24.23
2018-08-28T06:21:38.035Z,16.77
2018-08-28T06:22:41.455Z,11.50
2018-08-28T06:23:44.838Z,16.50
2018-08-28T06:24:48.212Z,12.90
2018-08-28T06:25:51.615Z,12.47
2018-08-28T06:26:55.036Z,16.50
2018-08-28T06:27:58.442Z,8.93
2018-08-28T06:29:01.855Z,10.07
2018-08-28T06:30:05.271Z,10.53
2018-08-28T06:31:08.679Z,10.97
2018-08-28T06:32:12.146Z,12.20
2018-08-28T06:33:15.559Z,11.70
2018-08-28T06:34:19.031Z,11.03
2018-08-28T06:35:22.507Z,11.83
2018-08-28T06:36:26.010Z,15.10
2018-08-28T06:37:29.488Z,12.37
2018-08-28T06:38:32.824Z,13.80
2018-08-28T06:39:36.220Z,14.73
2018-08-28T06:40:39.676Z,19.07
2018-08-28T06:41:43.062Z,15.10
2018-08-28T06:42:46.469Z,16.20
2018-08-28T06:43:49.917Z,20.27
2018-08-28T06:44:53.319Z,11.80
2018-08-28T06:45:56.698Z,31.10
2018-08-28T06:47:00.099Z,14.73
2018-08-28T06:48:03.512Z,17.70
2018-08-28T06:49:06.921Z,17.63
2018-08-28T06:50:10.358Z,18.83
2018-08-28T06:51:13.820Z,17.47
2018-08-28T06:52:17.197Z,18.07
2018-08-28T06:53:20.658Z,15.77
2018-08-28T06:54:24.144Z,11.70
2018-08-28T06:55:27.579Z,18.17
2018-08-28T06:56:31.064Z,16.10
2018-08-28T06:57:34.468Z,16.40
2018-08-28T06:58:37.904Z,19.50
2018-08-28T06:59:41.346Z,15.40
2018-08-28T07:00:44.710Z,13.03
2018-08-28T07:01:48.337Z,14.67
2018-08-28T07:02:51.790Z,13.37
2018-08-28T07:03:55.216Z,11.90
2018-08-28T07:04:58.666Z,12.07
2018-08-28T07:06:02.054Z,10.80
2018-08-28T07:07:05.542Z,13.77
2018-08-28T07:08:09.009Z,11.63
2018-08-28T07:09:13.720Z,15.17
2018-08-28T07:10:17.198Z,14.40
2018-08-28T07:11:20.558Z,15.87
2018-08-28T07:12:23.953Z,11.47
2018-08-28T07:13:27.373Z,14.43
2018-08-28T07:14:30.817Z,8.60
2018-08-28T07:15:34.256Z,12.30
2018-08-28T07:16:37.656Z,15.60
2018-08-28T07:17:41.271Z,13.67
2018-08-28T07:18:44.719Z,12.80
2018-08-28T07:19:48.116Z,12.27
2018-08-28T07:20:51.534Z,12.40
2018-08-28T07:21:54.990Z,14.13
2018-08-28T07:22:58.434Z,13.87
2018-08-28T07:24:01.876Z,12.60
2018-08-28T07:25:05.826Z,14.27
2018-08-28T07:26:09.355Z,15.77
2018-08-28T07:27:12.956Z,10.80
2018-08-28T07:28:16.383Z,13.53
2018-08-28T07:29:19.776Z,13.33
2018-08-28T07:30:23.220Z,10.63
2018-08-28T07:31:26.855Z,8.23
2018-08-28T07:32:30.186Z,19.53
2018-08-28T07:33:33.587Z,11.20
2018-08-28T07:34:36.958Z,10.53
2018-08-28T07:35:40.342Z,12.93
2018-08-28T07:36:43.868Z,12.50
2018-08-28T07:37:47.308Z,11.50
2018-08-28T07:38:50.697Z,9.23
2018-08-28T07:39:54.150Z,10.10
2018-08-28T07:40:57.576Z,10.43
2018-08-28T07:42:00.965Z,10.70
2018-08-28T07:43:04.435Z,17.43
2018-08-28T07:44:07.835Z,9.57
2018-08-28T07:45:11.260Z,15.77
2018-08-28T07:46:14.874Z,12.73
2018-08-28T07:47:18.272Z,14.37
2018-08-28T07:48:21.781Z,12.53
2018-08-28T07:49:25.222Z,15.77
2018-08-28T07:50:28.623Z,12.30
2018-08-28T07:51:31.998Z,9.90
2018-08-28T07:52:35.432Z,10.03
2018-08-28T07:53:38.959Z,9.23
2018-08-28T07:54:42.628Z,8.80
2018-08-28T07:55:46.067Z,13.40
2018-08-28T07:56:49.436Z,13.90
2018-08-28T07:57:52.823Z,8.93
2018-08-28T07:58:56.208Z,12.03
2018-08-28T07:59:59.586Z,9.53
2018-08-28T08:01:03.016Z,8.30
2018-08-28T08:02:06.502Z,13.00
2018-08-28T08:03:09.917Z,7.77
2018-08-28T08:04:13.366Z,9.87
2018-08-28T08:05:16.761Z,12.20
2018-08-28T08:06:20.164Z,11.57
2018-08-28T08:07:25.272Z,10.17
2018-08-28T08:08:28.674Z,7.67
2018-08-28T08:09:32.080Z,10.67
2018-08-28T08:10:35.610Z,11.07
2018-08-28T08:11:38.921Z,8.83
2018-08-28T08:12:42.520Z,10.43
2018-08-28T08:13:45.955Z,7.10
2018-08-28T08:14:49.334Z,7.77
2018-08-28T08:15:53.276Z,7.83
2018-08-28T08:16:56.708Z,8.80
2018-08-28T08:18:00.280Z,9.17
2018-08-28T08:19:03.713Z,8.90
2018-08-28T08:20:07.157Z,13.70
2018-08-28T08:21:10.582Z,11.00
2018-08-28T08:22:14.145Z,9.23
2018-08-28T08:23:17.468Z,8.40
2018-08-28T08:24:20.873Z,7.23
2018-08-28T08:25:24.329Z,8.60
2018-08-28T08:26:27.744Z,8.57
2018-08-28T08:27:31.156Z,8.77
2018-08-28T08:28:34.685Z,9.60
2018-08-28T08:29:38.095Z,7.77
2018-08-28T08:30:41.455Z,14.23
2018-08-28T08:31:44.869Z,6.67
2018-08-28T08:32:48.280Z,6.97
2018-08-28T08:33:51.759Z,8.53
2018-08-28T08:34:55.174Z,7.60
2018-08-28T08:35:58.605Z,10.67
2018-08-28T08:37:02.055Z,7.03
2018-08-28T08:38:05.513Z,6.70
2018-08-28T08:39:10.115Z,7.00
2018-08-28T08:40:13.486Z,9.27
2018-08-28T08:41:16.897Z,7.67
2018-08-28T08:42:20.278Z,10.30
2018-08-28T08:43:23.702Z,9.93
2018-08-28T08:44:27.215Z,7.90
2018-08-28T08:45:30.648Z,13.03
2018-08-28T08:46:34.095Z,10.27
2018-08-28T08:47:37.513Z,9.47
2018-08-28T08:48:40.907Z,9.40
2018-08-28T08:49:44.302Z,10.13
2018-08-28T08:50:47.714Z,7.90
2018-08-28T08:51:51.152Z,9.90
2018-08-28T08:52:54.565Z,7.83
2018-08-28T08:53:57.933Z,7.00
2018-08-28T08:55:01.430Z,9.33
2018-08-28T08:56:04.758Z,6.57
2018-08-28T08:57:08.189Z,8.73
2018-08-28T08:58:11.604Z,10.80
2018-08-28T08:59:15.055Z,9.50
2018-08-28T09:00:18.490Z,9.87
2018-08-28T09:01:22.086Z,8.70
2018-08-28T09:02:25.542Z,11.13
2018-08-28T09:03:28.985Z,7.67
2018-08-28T09:04:32.356Z,8.20
2018-08-28T09:05:35.765Z,12.90
2018-08-28T09:06:39.248Z,9.33
2018-08-28T09:07:42.661Z,8.53
2018-08-28T09:08:46.031Z,7.23
2018-08-28T09:09:49.440Z,8.13
2018-08-28T09:10:52.918Z,11.10
2018-08-28T09:11:56.326Z,8.10
2018-08-28T09:12:59.845Z,10.43
2018-08-28T09:14:03.303Z,9.57
2018-08-28T09:15:06.825Z,11.07
2018-08-28T09:16:10.276Z,22.30
2018-08-28T09:17:13.684Z,5.53
2018-08-28T09:18:17.090Z,9.30
2018-08-28T09:19:20.537Z,7.03
2018-08-28T09:20:23.899Z,13.60
2018-08-28T09:21:27.345Z,9.23
2018-08-28T09:22:30.803Z,9.83
2018-08-28T09:23:34.198Z,11.30
2018-08-28T09:24:37.597Z,10.93
2018-08-28T09:25:41.027Z,6.30
2018-08-28T09:26:44.432Z,14.13
2018-08-28T09:27:47.863Z,8.33
2018-08-28T09:28:51.258Z,8.47
2018-08-28T09:29:54.719Z,11.50
2018-08-28T09:30:58.127Z,10.73
2018-08-28T09:32:01.580Z,10.40
2018-08-28T09:33:05.066Z,12.17
2018-08-28T09:34:08.518Z,13.80
2018-08-28T09:35:11.959Z,15.60
2018-08-28T09:36:15.509Z,15.53
2018-08-28T09:37:18.931Z,11.90
2018-08-28T09:38:22.383Z,17.67
2018-08-28T09:39:25.793Z,11.90
2018-08-28T09:40:29.366Z,12.20
2018-08-28T09:41:32.816Z,16.37
2018-08-28T09:42:36.228Z,12.80
2018-08-28T09:43:39.660Z,8.40
2018-08-28T09:44:43.083Z,11.03
2018-08-28T09:45:46.462Z,11.90
2018-08-28T09:46:49.891Z,9.67
2018-08-28T09:47:53.296Z,12.03
2018-08-28T09:48:56.682Z,9.40
2018-08-28T09:50:00.170Z,13.67
2018-08-28T09:51:03.547Z,11.13
2018-08-28T09:52:07.000Z,11.87
2018-08-28T09:53:10.390Z,15.30
2018-08-28T09:54:13.832Z,10.40
2018-08-28T09:55:17.283Z,12.67
2018-08-28T09:56:20.675Z,15.07
2018-08-28T09:57:24.165Z,10.03
2018-08-28T09:58:27.814Z,10.93
2018-08-28T09:59:31.283Z,8.63
2018-08-28T10:00:38.816Z,7.63
2018-08-28T10:01:43.070Z,7.63
2018-08-28T10:02:46.521Z,11.53
2018-08-28T10:03:49.954Z,9.30
2018-08-28T10:04:53.427Z,9.50
2018-08-28T10:05:56.795Z,14.23
2018-08-28T10:07:00.178Z,10.50
2018-08-28T10:08:03.654Z,11.63
2018-08-28T10:09:11.968Z,9.80
2018-08-28T10:10:15.373Z,9.90
2018-08-28T10:11:18.790Z,10.10
2018-08-28T10:12:22.220Z,10.03
2018-08-28T10:13:25.734Z,10.17
2018-08-28T10:14:29.142Z,9.87
2018-08-28T10:15:32.517Z,11.33
2018-08-28T10:16:36.383Z,7.87
2018-08-28T10:17:39.819Z,10.57
2018-08-28T10:18:43.288Z,11.03
2018-08-28T10:19:46.712Z,16.10
2018-08-28T10:20:50.109Z,14.63
2018-08-28T10:21:53.500Z,17.80
2018-08-28T10:22:56.981Z,12.40
2018-08-28T10:24:00.388Z,8.63
2018-08-28T10:25:03.868Z,15.50
2018-08-28T10:26:07.329Z,22.23
2018-08-28T10:27:10.754Z,11.40
2018-08-28T10:28:14.148Z,8.73
2018-08-28T10:29:17.623Z,16.80
2018-08-28T10:30:21.068Z,16.63
2018-08-28T10:31:24.540Z,9.43
2018-08-28T10:32:27.981Z,16.67
2018-08-28T10:33:31.380Z,10.77
2018-08-28T10:34:34.796Z,10.80
2018-08-28T10:35:38.265Z,14.30
2018-08-28T10:36:41.673Z,14.00
2018-08-28T10:37:45.052Z,9.30
2018-08-28T10:38:48.514Z,20.23
2018-08-28T10:39:51.924Z,13.90
2018-08-28T10:40:55.357Z,10.50
2018-08-28T10:41:58.767Z,17.30
2018-08-28T10:43:02.167Z,11.87
2018-08-28T10:44:05.643Z,12.50
2018-08-28T10:45:09.196Z,11.03
2018-08-28T10:46:12.610Z,15.30
2018-08-28T10:47:16.060Z,10.27
2018-08-28T10:48:19.538Z,12.70
2018-08-28T10:49:22.979Z,11.43
2018-08-28T10:50:26.374Z,11.20
2018-08-28T10:51:29.864Z,13.27
2018-08-28T10:52:33.294Z,11.30
2018-08-28T10:53:36.776Z,15.53
2018-08-28T10:54:40.226Z,15.70
2018-08-28T10:55:43.611Z,17.67
2018-08-28T10:56:47.024Z,18.30
2018-08-28T10:57:50.410Z,20.73
2018-08-28T10:58:53.825Z,14.17
2018-08-28T10:59:57.746Z,16.70
2018-08-28T11:01:01.259Z,22.37
2018-08-28T11:02:04.672Z,16.87
2018-08-28T11:03:08.119Z,15.50
2018-08-28T11:04:11.534Z,21.03
2018-08-28T11:05:14.993Z,13.33
2018-08-28T11:06:18.394Z,11.73
2018-08-28T11:07:21.790Z,18.93
2018-08-28T11:08:25.221Z,16.20
2018-08-28T11:09:28.683Z,18.80
2018-08-28T11:10:32.099Z,12.20
2018-08-28T11:11:35.527Z,15.10
2018-08-28T11:12:38.984Z,16.80
2018-08-28T11:13:42.411Z,15.60
2018-08-28T11:14:45.815Z,12.83
2018-08-28T11:15:49.206Z,15.60
2018-08-28T11:16:52.674Z,15.10
2018-08-28T11:17:56.208Z,11.87
2018-08-28T11:18:59.645Z,17.73
2018-08-28T11:20:03.121Z,17.33
2018-08-28T11:21:06.579Z,20.40
2018-08-28T11:22:10.203Z,13.00
2018-08-28T11:23:13.949Z,17.30
2018-08-28T11:24:17.520Z,14.20
2018-08-28T11:25:20.935Z,18.97
2018-08-28T11:26:24.998Z,15.53
2018-08-28T11:27:28.407Z,21.53
2018-08-28T11:28:31.792Z,21.87
2018-08-28T11:29:35.257Z,27.27
2018-08-28T11:30:38.640Z,14.27
2018-08-28T11:31:42.046Z,11.60
2018-08-28T11:32:45.499Z,16.57
2018-08-28T11:33:49.016Z,14.70
2018-08-28T11:34:52.541Z,15.07
2018-08-28T11:35:56.343Z,11.00
2018-08-28T11:36:59.770Z,12.80
2018-08-28T11:38:03.293Z,16.33
2018-08-28T11:39:07.583Z,12.67
2018-08-28T11:40:11.060Z,12.23
2018-08-28T11:41:14.505Z,12.47
2018-08-28T11:42:17.987Z,13.27
2018-08-28T11:43:21.513Z,12.20
2018-08-28T11:44:25.005Z,21.70
2018-08-28T11:45:28.502Z,22.50
2018-08-28T11:46:31.969Z,12.93
2018-08-28T11:47:35.912Z,12.70
2018-08-28T11:48:39.476Z,14.57
2018-08-28T11:49:45.885Z,11.57
2018-08-28T11:50:49.589Z,14.13
2018-08-28T11:51:53.311Z,14.43
2018-08-28T11:52:56.818Z,12.70
2018-08-28T11:54:00.557Z,15.90
2018-08-28T11:55:03.988Z,13.17
2018-08-28T11:56:07.508Z,12.27
2018-08-28T11:57:11.023Z,13.40
2018-08-28T11:58:14.469Z,16.80
2018-08-28T11:59:17.874Z,12.20
2018-08-28T12:00:21.337Z,15.73
2018-08-28T12:01:24.837Z,15.87
2018-08-28T12:02:28.318Z,14.80
2018-08-28T12:03:31.738Z,14.40
2018-08-28T12:04:35.141Z,14.10
2018-08-28T12:05:38.591Z,12.60
2018-08-28T12:06:42.165Z,15.53
2018-08-28T12:07:45.679Z,15.70
2018-08-28T12:08:48.987Z,12.13
2018-08-28T12:09:52.401Z,15.40
2018-08-28T12:10:55.856Z,14.40
2018-08-28T12:11:59.307Z,11.10
2018-08-28T12:13:02.702Z,16.47
2018-08-28T12:14:06.100Z,12.73
2018-08-28T12:15:09.534Z,10.20
2018-08-28T12:16:12.940Z,13.30
2018-08-28T12:17:16.406Z,10.80
2018-08-28T12:18:19.781Z,13.97
2018-08-28T12:19:24.005Z,11.07
2018-08-28T12:20:27.510Z,12.30
2018-08-28T12:21:31.069Z,12.63
2018-08-28T12:22:34.580Z,12.83
2018-08-28T12:23:37.997Z,12.93
2018-08-28T12:24:41.367Z,13.40
2018-08-28T12:25:44.975Z,11.73
2018-08-28T12:26:48.703Z,15.33
2018-08-28T12:27:52.121Z,11.67
2018-08-28T12:28:55.560Z,11.73
2018-08-28T12:29:59.007Z,10.20
2018-08-28T12:31:02.463Z,12.33
2018-08-28T12:32:05.933Z,12.70
2018-08-28T12:33:09.389Z,18.20
2018-08-28T12:34:12.785Z,14.97
2018-08-28T12:35:16.194Z,12.73
2018-08-28T12:36:19.630Z,14.10
2018-08-28T12:37:23.073Z,14.60
2018-08-28T12:38:26.505Z,9.60
2018-08-28T12:39:29.937Z,14.57
2018-08-28T12:40:33.369Z,10.80
2018-08-28T12:41:36.822Z,11.10
2018-08-28T12:42:40.222Z,12.27
2018-08-28T12:43:43.763Z,11.03
2018-08-28T12:44:47.128Z,9.27
2018-08-28T12:45:50.559Z,12.57
2018-08-28T12:46:54.441Z,11.83
2018-08-28T12:47:57.814Z,11.50
2018-08-28T12:49:01.260Z,12.00
2018-08-28T12:50:05.159Z,12.00
2018-08-28T12:51:08.688Z,9.60
2018-08-28T12:52:12.075Z,12.90
2018-08-28T12:53:15.553Z,11.87
2018-08-28T12:54:19.031Z,11.03
2018-08-28T12:55:22.433Z,9.20
2018-08-28T12:56:25.867Z,10.30
2018-08-28T12:57:29.260Z,12.00
2018-08-28T12:58:32.844Z,9.50
2018-08-28T12:59:36.271Z,11.53
2018-08-28T13:00:39.747Z,9.07
2018-08-28T13:01:43.111Z,9.40
2018-08-28T13:02:46.486Z,12.97
2018-08-28T13:03:49.895Z,14.63
2018-08-28T13:04:53.429Z,11.13
2018-08-28T13:05:57.132Z,18.90
2018-08-28T13:07:00.554Z,10.33
2018-08-28T13:08:03.954Z,13.30
2018-08-28T13:09:07.396Z,11.90
2018-08-28T13:10:10.793Z,14.93
2018-08-28T13:11:14.169Z,13.13
2018-08-28T13:12:17.604Z,13.03
2018-08-28T13:13:21.037Z,16.73
2018-08-28T13:14:24.548Z,11.50
2018-08-28T13:15:27.963Z,14.90
2018-08-28T13:16:31.603Z,12.20
2018-08-28T13:17:35.025Z,9.97
2018-08-28T13:18:38.386Z,14.03
2018-08-28T13:19:41.794Z,10.43
2018-08-28T13:20:45.197Z,15.33
2018-08-28T13:21:48.621Z,11.47
2018-08-28T13:22:52.239Z,11.57
2018-08-28T13:23:55.578Z,13.40
2018-08-28T13:24:59.257Z,9.70
2018-08-28T13:26:02.723Z,9.70
2018-08-28T13:27:06.392Z,11.30
2018-08-28T13:28:09.761Z,9.83
2018-08-28T13:29:13.180Z,10.00
2018-08-28T13:30:16.587Z,7.80
2018-08-28T13:31:19.978Z,15.93
2018-08-28T13:32:23.414Z,10.27
2018-08-28T13:33:26.861Z,10.83
2018-08-28T13:34:30.390Z,13.23
2018-08-28T13:35:33.812Z,11.53
2018-08-28T13:36:37.232Z,10.57
2018-08-28T13:37:40.615Z,8.80
2018-08-28T13:38:44.010Z,8.40
2018-08-28T13:39:47.440Z,14.87
2018-08-28T13:40:50.991Z,18.10
2018-08-28T13:41:54.621Z,10.50
2018-08-28T13:42:58.030Z,11.47
2018-08-28T13:44:01.441Z,11.63
2018-08-28T13:45:05.080Z,10.77
2018-08-28T13:46:08.503Z,12.00
2018-08-28T13:47:12.028Z,10.57
2018-08-28T13:48:15.430Z,11.27
2018-08-28T13:49:18.851Z,12.73
2018-08-28T13:50:22.565Z,13.03
2018-08-28T13:51:26.093Z,12.53